To NAV CANADA Home Page Login to a new session Search on AWWS site Disclaimer Vers la page française équivalente Tips FAQ What's new on the site To the Forecasts and Observations / NOTAM section To "File a Flight Plan" website Publications and other links Update of the User's profile FIC Telephone Numbers My Weather Data Folder Route Weather Data Regional Weather Data Local Weather Data To the Forecasts and Observations / NOTAM section
Request Generated 03/21/2019 at 01:30:42 UTC . Weather information available at that time is displayed.

METAR/TAF

TRENTON/ON    

METAR CYTR 210100Z 00000KT 15SM FEW100 SCT140 OVC200 02/M02 A3011 RMK AC1AS3CI4 DA-1383FT SLP200=
METAR CYTR 210000Z 00000KT 15SM FEW100 OVC200 03/M04 A3011 RMK AC1CI7 SLP202=
METAR CYTR 202300Z 00000KT 15SM FEW120 BKN210 06/M03 A3013 RMK AC1CI4 SLP205=

TAF CYTR 202330Z 2100/2124 VRB03KT P6SM FEW100 BKN200
FM210300 08008KT P6SM SCT040 OVC080
FM210500 18010KT P6SM FEW020 OVC060 TEMPO 2105/2108 6SM -SHRA BR
SCT020 OVC040
FM210800 16010KT P6SM SCT020 OVC060 TEMPO 2108/2114 5SM -SHRA BR
OVC020
FM211400 17010G20KT 6SM -RA BR SCT015 OVC030 TEMPO 2114/2124 3SM
-SHRA BR OVC015
BECMG 2118/2120 20006KT
RMK NXT FCST BY 210600Z=
Your time UTC time
Weather data provided by Environment Canada and NAV CANADA